createdAt,value
2024-04-25T00:00:21.684Z,100553.41
2024-04-25T00:02:53.162Z,100553.66
2024-04-25T00:05:21.958Z,100558.16
2024-04-25T00:07:49.900Z,100547.28
2024-04-25T00:10:16.635Z,100547.41
2024-04-25T00:12:43.460Z,100541.22
2024-04-25T00:15:11.058Z,100542.41
2024-04-25T00:17:38.276Z,100549.84
2024-04-25T00:20:05.688Z,100537.78
2024-04-25T00:22:32.796Z,100540.97
2024-04-25T00:24:59.691Z,100534.16
2024-04-25T00:27:26.523Z,100530.41
2024-04-25T00:29:53.285Z,100530.28
2024-04-25T00:32:20.005Z,100526.41
2024-04-25T00:34:46.850Z,100529.09
2024-04-25T00:37:13.730Z,100526.16
2024-04-25T00:39:40.448Z,100526.75
2024-04-25T00:42:07.091Z,100528.31
2024-04-25T00:44:33.985Z,100526.69
2024-04-25T00:47:01.101Z,100521.28
2024-04-25T00:49:28.432Z,100513.66
2024-04-25T00:51:55.748Z,100522.59
2024-04-25T00:54:22.654Z,100521.25
2024-04-25T00:56:50.297Z,100522.59
2024-04-25T00:59:17.455Z,100518.59
2024-04-25T01:01:45.120Z,100521.44
2024-04-25T01:04:14.016Z,100520.44
2024-04-25T01:06:41.862Z,100521.16
2024-04-25T01:09:08.554Z,100522.78
2024-04-25T01:11:35.426Z,100521.03
2024-04-25T01:14:02.643Z,100518.00
2024-04-25T01:16:29.805Z,100513.41
2024-04-25T01:18:56.514Z,100521.44
2024-04-25T01:21:23.316Z,100511.09
2024-04-25T01:23:52.665Z,100508.72
2024-04-25T01:26:19.882Z,100507.94
2024-04-25T01:28:46.857Z,100508.50
2024-04-25T01:31:14.496Z,100505.44
2024-04-25T01:33:41.425Z,100500.84
2024-04-25T01:36:08.450Z,100497.22
2024-04-25T01:38:35.260Z,100492.09
2024-04-25T01:41:02.026Z,100486.97
2024-04-25T01:43:28.852Z,100477.91
2024-04-25T01:45:55.571Z,100476.59
2024-04-25T01:48:22.395Z,100473.50
2024-04-25T01:50:49.301Z,100479.00
2024-04-25T01:53:16.042Z,100475.78
2024-04-25T01:55:42.782Z,100471.50
2024-04-25T01:58:09.654Z,100475.34
2024-04-25T02:00:36.598Z,100464.28
2024-04-25T02:03:03.573Z,100464.03
2024-04-25T02:05:30.355Z,100466.78
2024-04-25T02:07:57.062Z,100468.16
2024-04-25T02:10:23.785Z,100465.63
2024-04-25T02:12:50.508Z,100460.31
2024-04-25T02:15:17.281Z,100459.16
2024-04-25T02:17:44.503Z,100466.19
2024-04-25T02:20:29.627Z,100465.06
2024-04-25T02:23:16.056Z,100462.97
2024-04-25T02:25:42.880Z,100468.44
2024-04-25T02:28:09.560Z,100460.84
2024-04-25T02:30:36.312Z,100461.53
2024-04-25T02:33:03.044Z,100459.28
2024-04-25T02:35:29.795Z,100458.44
2024-04-25T02:37:56.522Z,100449.66
2024-04-25T02:40:23.269Z,100451.94
2024-04-25T02:42:50.079Z,100456.88
2024-04-25T02:45:16.788Z,100447.66
2024-04-25T02:47:43.625Z,100440.31
2024-04-25T02:50:11.914Z,100442.97
2024-04-25T02:52:39.616Z,100437.75
2024-04-25T02:55:06.848Z,100442.50
2024-04-25T02:57:33.616Z,100442.19
2024-04-25T03:00:00.601Z,100436.59
2024-04-25T03:02:27.961Z,100441.28
2024-04-25T03:04:54.883Z,100449.25
2024-04-25T03:07:21.748Z,100441.50
2024-04-25T03:09:48.487Z,100443.06
2024-04-25T03:12:15.193Z,100433.72
2024-04-25T03:14:42.085Z,100436.47
2024-04-25T03:17:09.101Z,100441.31
2024-04-25T03:19:35.748Z,100439.03
2024-04-25T03:22:02.436Z,100440.00
2024-04-25T03:24:29.141Z,100441.16
2024-04-25T03:26:55.802Z,100443.81
2024-04-25T03:29:22.502Z,100442.16
2024-04-25T03:31:50.059Z,100437.13
2024-04-25T03:34:17.144Z,100434.50
2024-04-25T03:36:43.895Z,100429.34
2024-04-25T03:39:10.574Z,100427.88
2024-04-25T03:41:37.299Z,100422.69
2024-04-25T03:44:04.521Z,100430.41
2024-04-25T03:46:31.251Z,100437.56
2024-04-25T03:48:58.078Z,100431.31
2024-04-25T03:51:24.731Z,100430.28
2024-04-25T03:53:51.633Z,100436.06
2024-04-25T03:56:18.568Z,100428.19
2024-04-25T03:58:45.371Z,100421.78
2024-04-25T04:01:14.158Z,100404.47
2024-04-25T04:03:41.108Z,100407.13
2024-04-25T04:06:07.856Z,100409.63
2024-04-25T04:08:34.698Z,100407.75
2024-04-25T04:11:01.471Z,100400.44
2024-04-25T04:13:28.368Z,100394.47
2024-04-25T04:15:55.255Z,100399.09
2024-04-25T04:18:22.014Z,100393.91
2024-04-25T04:20:52.219Z,100396.03
2024-04-25T04:23:19.015Z,100398.69
2024-04-25T04:25:45.839Z,100411.72
2024-04-25T04:28:15.545Z,100405.78
2024-04-25T04:30:42.986Z,100408.63
2024-04-25T04:33:09.956Z,100411.47
2024-04-25T04:35:36.973Z,100407.34
2024-04-25T04:38:03.858Z,100399.22
2024-04-25T04:40:30.581Z,100399.19
2024-04-25T04:42:57.390Z,100397.66
2024-04-25T04:45:24.182Z,100395.44
2024-04-25T04:47:50.940Z,100395.69
2024-04-25T04:50:20.470Z,100395.41
2024-04-25T04:52:47.732Z,100392.47
2024-04-25T04:55:15.124Z,100392.06
2024-04-25T04:57:42.004Z,100394.03
2024-04-25T05:00:10.213Z,100400.34
2024-04-25T05:02:37.201Z,100401.19
2024-04-25T05:05:04.132Z,100401.47
2024-04-25T05:07:30.820Z,100397.84
2024-04-25T05:09:57.487Z,100405.59
2024-04-25T05:12:26.545Z,100406.84
2024-04-25T05:14:54.791Z,100402.94
2024-04-25T05:17:21.524Z,100398.16
2024-04-25T05:19:48.231Z,100404.06
2024-04-25T05:22:15.175Z,100398.56
2024-04-25T05:24:41.822Z,100398.44
2024-04-25T05:27:08.531Z,100399.28
2024-04-25T05:29:36.857Z,100395.19
2024-04-25T05:32:04.729Z,100397.59
2024-04-25T05:34:31.502Z,100394.66
2024-04-25T05:36:58.428Z,100394.94
2024-04-25T05:39:26.143Z,100391.13
2024-04-25T05:41:52.900Z,100398.75
2024-04-25T05:44:19.928Z,100388.59
2024-04-25T05:46:46.725Z,100391.00
2024-04-25T05:49:13.596Z,100380.97
2024-04-25T05:51:40.242Z,100386.75
2024-04-25T05:54:06.904Z,100371.13
2024-04-25T05:56:33.603Z,100371.09
2024-04-25T05:59:00.231Z,100370.53
2024-04-25T06:01:27.058Z,100368.44
2024-04-25T06:03:53.964Z,100369.38
2024-04-25T06:06:20.685Z,100372.34
2024-04-25T06:08:47.389Z,100365.84
2024-04-25T06:11:14.230Z,100368.25
2024-04-25T06:13:42.638Z,100372.19
2024-04-25T06:16:09.496Z,100363.31
2024-04-25T06:18:36.366Z,100366.97
2024-04-25T06:21:03.226Z,100369.78
2024-04-25T06:23:31.426Z,100366.13
2024-04-25T06:25:58.295Z,100362.22
2024-04-25T06:28:24.976Z,100369.47
2024-04-25T06:30:51.632Z,100356.03
2024-04-25T06:33:18.592Z,100370.56
2024-04-25T06:35:45.420Z,100370.78
2024-04-25T06:38:15.999Z,100373.19
2024-04-25T06:40:43.837Z,100368.03
2024-04-25T06:43:10.633Z,100372.13
2024-04-25T06:45:38.223Z,100366.16
2024-04-25T06:48:06.052Z,100367.97
2024-04-25T06:50:32.906Z,100355.03
2024-04-25T06:52:59.601Z,100347.03
2024-04-25T06:55:26.262Z,100352.09
2024-04-25T06:57:54.698Z,100345.81
2024-04-25T07:00:22.317Z,100351.63
2024-04-25T07:02:49.119Z,100347.59
2024-04-25T07:05:15.905Z,100351.41
2024-04-25T07:07:42.827Z,100347.28
2024-04-25T07:10:09.596Z,100346.88
2024-04-25T07:12:37.056Z,100346.75
2024-04-25T07:15:07.742Z,100339.53
2024-04-25T07:17:35.322Z,100334.41
2024-04-25T07:20:02.244Z,100329.34
2024-04-25T07:22:28.937Z,100331.03
2024-04-25T07:24:55.729Z,100322.94
2024-04-25T07:27:22.830Z,100323.06
2024-04-25T07:29:49.630Z,100321.78
2024-04-25T07:32:16.891Z,100315.72
2024-04-25T07:34:44.779Z,100319.81
2024-04-25T07:37:12.494Z,100315.56
2024-04-25T07:39:39.250Z,100320.31
2024-04-25T07:42:06.015Z,100324.06
2024-04-25T07:44:33.052Z,100320.97
2024-04-25T07:46:59.794Z,100314.94
2024-04-25T07:49:26.582Z,100305.38
2024-04-25T07:51:53.343Z,100309.91
2024-04-25T07:54:20.093Z,100313.91
2024-04-25T07:56:47.001Z,100306.97
2024-04-25T07:59:13.855Z,100308.84
2024-04-25T08:01:40.523Z,100306.69
2024-04-25T08:04:07.446Z,100319.13
2024-04-25T08:06:35.899Z,100309.72
2024-04-25T08:09:02.777Z,100312.19
2024-04-25T08:11:29.608Z,100319.41
2024-04-25T08:13:59.478Z,100305.63
2024-04-25T08:16:28.003Z,100308.84
2024-04-25T08:18:55.923Z,100311.66
2024-04-25T08:21:23.295Z,100306.25
2024-04-25T08:23:49.933Z,100311.50
2024-04-25T08:26:16.884Z,100304.81
2024-04-25T08:28:43.961Z,100304.66
2024-04-25T08:31:10.805Z,100301.94
2024-04-25T08:33:38.181Z,100292.53
2024-04-25T08:36:05.399Z,100296.75
2024-04-25T08:38:34.471Z,100299.97
2024-04-25T08:41:01.302Z,100289.84
2024-04-25T08:43:28.924Z,100297.41
2024-04-25T08:45:56.098Z,100302.13
2024-04-25T08:48:24.089Z,100303.16
2024-04-25T08:50:53.323Z,100303.84
2024-04-25T08:53:22.674Z,100300.47
2024-04-25T08:55:49.920Z,100302.66
2024-04-25T08:58:17.328Z,100300.25
2024-04-25T09:00:44.049Z,100300.91
2024-04-25T09:03:15.029Z,100300.28
2024-04-25T09:05:42.363Z,100308.81
2024-04-25T09:08:12.628Z,100303.97
2024-04-25T09:10:43.131Z,100296.09
2024-04-25T09:13:10.313Z,100298.25
2024-04-25T09:15:37.195Z,100291.44
2024-04-25T09:18:04.615Z,100287.53
2024-04-25T09:20:32.961Z,100294.88
2024-04-25T09:23:03.444Z,100289.34
2024-04-25T09:25:33.448Z,100286.66
2024-04-25T09:28:02.563Z,100276.41
2024-04-25T09:30:31.507Z,100279.72
2024-04-25T09:32:58.363Z,100272.22
2024-04-25T09:35:25.381Z,100261.97
2024-04-25T09:37:52.438Z,100261.97
2024-04-25T09:40:19.127Z,100251.03
2024-04-25T09:42:46.840Z,100259.63
2024-04-25T09:45:14.086Z,100260.16
2024-04-25T09:47:46.529Z,100262.38
2024-04-25T09:50:26.026Z,100256.31
2024-04-25T09:53:07.466Z,100257.00
2024-04-25T09:55:40.792Z,100247.09
2024-04-25T09:58:25.596Z,100259.47
2024-04-25T10:00:53.222Z,100251.44
2024-04-25T10:03:20.588Z,100272.19
2024-04-25T10:05:47.714Z,100267.50
2024-04-25T10:08:14.809Z,100273.06
2024-04-25T10:10:42.206Z,100275.75
2024-04-25T10:13:14.807Z,100280.13
2024-04-25T10:15:41.580Z,100277.44
2024-04-25T10:18:09.471Z,100275.44
2024-04-25T10:20:36.429Z,100259.84
2024-04-25T10:23:03.284Z,100259.81
2024-04-25T10:25:30.073Z,100254.91
2024-04-25T10:28:02.559Z,100253.34
2024-04-25T10:30:29.871Z,100247.97
2024-04-25T10:32:59.635Z,100238.63
2024-04-25T10:35:27.173Z,100242.97
2024-04-25T10:37:56.763Z,100234.69
2024-04-25T10:40:23.784Z,100234.34
2024-04-25T10:43:04.611Z,100231.63
2024-04-25T10:45:34.895Z,100230.31
2024-04-25T10:48:01.972Z,100229.59
2024-04-25T10:50:31.092Z,100234.53
2024-04-25T10:52:58.028Z,100221.66
2024-04-25T10:55:25.046Z,100226.84
2024-04-25T10:57:51.869Z,100218.78
2024-04-25T11:00:18.620Z,100211.38
2024-04-25T11:02:45.617Z,100211.03
2024-04-25T11:05:12.622Z,100212.88
2024-04-25T11:07:40.657Z,100208.16
2024-04-25T11:10:10.206Z,100203.78
2024-04-25T11:12:38.411Z,100198.88
2024-04-25T11:15:17.977Z,100202.75
2024-04-25T11:17:56.273Z,100206.31
2024-04-25T11:20:34.598Z,100195.69
2024-04-25T11:23:18.217Z,100197.06
2024-04-25T11:25:49.830Z,100196.56
2024-04-25T11:28:18.809Z,100198.91
2024-04-25T11:30:45.881Z,100196.03
2024-04-25T11:33:12.890Z,100191.66
2024-04-25T11:35:46.983Z,100194.19
2024-04-25T11:38:14.113Z,100192.84
2024-04-25T11:40:41.546Z,100203.28
2024-04-25T11:43:08.356Z,100200.75
2024-04-25T11:45:38.735Z,100190.66
2024-04-25T11:48:09.588Z,100185.59
2024-04-25T11:50:36.421Z,100193.19
2024-04-25T11:53:08.056Z,100193.69
2024-04-25T11:55:35.080Z,100190.31
2024-04-25T11:58:01.993Z,100184.91
2024-04-25T12:00:28.695Z,100179.38
2024-04-25T12:02:56.146Z,100169.28
2024-04-25T12:05:23.458Z,100174.16
2024-04-25T12:07:52.109Z,100168.94
2024-04-25T12:10:19.438Z,100162.19
2024-04-25T12:12:46.154Z,100161.00
2024-04-25T12:15:13.258Z,100158.31
2024-04-25T12:17:40.104Z,100153.25
2024-04-25T12:20:09.067Z,100144.69
2024-04-25T12:22:35.844Z,100139.97
2024-04-25T12:25:02.597Z,100139.13
2024-04-25T12:27:29.397Z,100144.72
2024-04-25T12:29:56.087Z,100144.72
2024-04-25T12:32:22.963Z,100134.28
2024-04-25T12:34:49.744Z,100137.75
2024-04-25T12:37:16.413Z,100126.44
2024-04-25T12:39:43.400Z,100128.78
2024-04-25T12:42:10.218Z,100109.91
2024-04-25T12:44:36.901Z,100115.28
2024-04-25T12:47:03.757Z,100116.28
2024-04-25T12:49:37.446Z,100113.53
2024-04-25T12:52:06.522Z,100104.88
2024-04-25T12:54:33.472Z,100102.28
2024-04-25T12:57:00.967Z,100099.19
2024-04-25T12:59:28.030Z,100107.81
2024-04-25T13:01:54.951Z,100099.25
2024-04-25T13:04:22.136Z,100100.28
2024-04-25T13:06:48.772Z,100092.34
2024-04-25T13:09:15.421Z,100099.19
2024-04-25T13:11:42.253Z,100095.19
2024-04-25T13:14:09.106Z,100087.50
2024-04-25T13:16:36.006Z,100097.47
2024-04-25T13:19:03.991Z,100087.69
2024-04-25T13:21:31.071Z,100085.91
2024-04-25T13:23:57.839Z,100073.19
2024-04-25T13:26:31.517Z,100090.94
2024-04-25T13:28:58.829Z,100081.38
2024-04-25T13:31:27.173Z,100077.25
2024-04-25T13:33:55.045Z,100086.88
2024-04-25T13:36:22.755Z,100070.84
2024-04-25T13:38:49.819Z,100065.91
2024-04-25T13:41:17.052Z,100069.16
2024-04-25T13:43:43.836Z,100064.59
2024-04-25T13:46:10.802Z,100060.03
2024-04-25T13:48:37.786Z,100050.06
2024-04-25T13:51:04.762Z,100051.19
2024-04-25T13:53:31.445Z,100051.47
2024-04-25T13:55:58.152Z,100062.63
2024-04-25T13:58:25.031Z,100057.00
2024-04-25T14:00:51.857Z,100054.47
2024-04-25T14:03:18.534Z,100061.34
2024-04-25T14:05:46.232Z,100068.41
2024-04-25T14:08:13.150Z,100054.75
2024-04-25T14:10:40.234Z,100057.66
2024-04-25T14:13:07.000Z,100054.03
2024-04-25T14:15:33.793Z,100054.16
2024-04-25T14:18:00.789Z,100047.53
2024-04-25T14:20:27.684Z,100054.06
2024-04-25T14:22:54.396Z,100041.84
2024-04-25T14:25:39.711Z,100051.44
2024-04-25T14:28:38.619Z,100042.31
2024-04-25T14:31:06.749Z,100035.72
2024-04-25T14:33:33.535Z,100039.13
2024-04-25T14:36:00.459Z,100033.56
2024-04-25T14:38:27.333Z,100034.69
2024-04-25T14:41:00.916Z,100025.28
2024-04-25T14:43:33.806Z,100024.06
2024-04-25T14:46:01.106Z,100026.81
2024-04-25T14:48:29.566Z,100015.72
2024-04-25T14:50:58.051Z,100023.38
2024-04-25T14:53:26.005Z,100026.06
2024-04-25T14:55:56.022Z,100022.50
2024-04-25T14:58:22.796Z,100018.75
2024-04-25T15:00:49.554Z,100011.81
2024-04-25T15:03:16.366Z,100013.06
2024-04-25T15:05:43.471Z,100011.03
2024-04-25T15:08:10.282Z,100013.19
2024-04-25T15:10:37.393Z,100005.88
2024-04-25T15:13:04.438Z,100011.47
2024-04-25T15:15:34.260Z,100000.84
2024-04-25T15:18:01.266Z,99996.09
2024-04-25T15:20:28.185Z,100001.78
2024-04-25T15:22:57.884Z,99997.94
2024-04-25T15:25:27.786Z,99989.88
2024-04-25T15:27:54.513Z,99986.59
2024-04-25T15:30:21.260Z,99984.78
2024-04-25T15:32:50.936Z,99991.34
2024-04-25T15:35:18.248Z,99977.22
2024-04-25T15:37:44.918Z,99978.19
2024-04-25T15:40:11.656Z,99973.44
2024-04-25T15:42:38.393Z,99969.22
2024-04-25T15:45:05.351Z,99971.19
2024-04-25T15:47:32.173Z,99962.50
2024-04-25T15:49:59.059Z,99959.28
2024-04-25T15:52:29.324Z,99964.22
2024-04-25T15:54:56.084Z,99961.50
2024-04-25T15:57:22.782Z,99959.38
2024-04-25T15:59:50.138Z,99965.25
2024-04-25T16:02:17.684Z,99949.56
2024-04-25T16:04:45.634Z,99954.75
2024-04-25T16:07:13.524Z,99948.28
2024-04-25T16:09:40.230Z,99953.84
2024-04-25T16:12:07.577Z,99969.72
2024-04-25T16:14:34.366Z,99955.06
2024-04-25T16:17:01.091Z,99958.78
2024-04-25T16:19:30.350Z,99958.31
2024-04-25T16:22:01.082Z,99954.94
2024-04-25T16:24:29.256Z,99951.59
2024-04-25T16:26:56.050Z,99953.97
2024-04-25T16:29:25.915Z,99949.31
2024-04-25T16:31:53.569Z,99947.66
2024-04-25T16:34:20.738Z,99949.34
2024-04-25T16:36:47.528Z,99948.53
2024-04-25T16:39:14.327Z,99961.31
2024-04-25T16:41:40.981Z,99965.06
2024-04-25T16:44:07.894Z,99959.97
2024-04-25T16:46:35.662Z,99962.34
2024-04-25T16:49:02.360Z,99971.06
2024-04-25T16:51:29.956Z,99974.09
2024-04-25T16:53:56.953Z,99959.13
2024-04-25T16:56:23.759Z,99959.81
2024-04-25T16:58:50.675Z,99957.63
2024-04-25T17:01:17.904Z,99950.06
2024-04-25T17:03:45.436Z,99949.53
2024-04-25T17:06:12.878Z,99944.66
2024-04-25T17:08:39.706Z,99945.50
2024-04-25T17:11:06.619Z,99937.25
2024-04-25T17:13:33.294Z,99940.81
2024-04-25T17:16:00.023Z,99934.06
2024-04-25T17:18:26.878Z,99935.94
2024-04-25T17:20:53.827Z,99933.88
2024-04-25T17:23:22.441Z,99926.84
2024-04-25T17:25:49.202Z,99924.47
2024-04-25T17:28:16.069Z,99926.16
2024-04-25T17:30:42.788Z,99928.31
2024-04-25T17:33:09.657Z,99925.13
2024-04-25T17:35:36.458Z,99926.16
2024-04-25T17:38:03.175Z,99924.31
2024-04-25T17:40:29.978Z,99920.44
2024-04-25T17:42:56.725Z,99914.38
2024-04-25T17:45:23.419Z,99917.41
2024-04-25T17:47:51.084Z,99903.47
2024-04-25T17:50:18.009Z,99912.88
2024-04-25T17:52:44.726Z,99904.09
2024-04-25T17:55:12.514Z,99891.53
2024-04-25T17:57:44.217Z,99896.03
2024-04-25T18:00:11.951Z,99891.19
2024-04-25T18:02:40.403Z,99886.78
2024-04-25T18:05:07.461Z,99889.47
2024-04-25T18:07:36.582Z,99882.97
2024-04-25T18:10:04.342Z,99887.34
2024-04-25T18:12:31.027Z,99880.59
2024-04-25T18:14:57.692Z,99883.28
2024-04-25T18:17:26.652Z,99882.28
2024-04-25T18:19:54.285Z,99873.72
2024-04-25T18:22:25.130Z,99879.94
2024-04-25T18:24:53.028Z,99888.19
2024-04-25T18:27:20.725Z,99883.16
2024-04-25T18:29:48.397Z,99877.91
2024-04-25T18:32:15.483Z,99874.56
2024-04-25T18:34:45.905Z,99884.63
2024-04-25T18:37:12.884Z,99874.06
2024-04-25T18:39:39.539Z,99871.88
2024-04-25T18:42:08.801Z,99872.06
2024-04-25T18:44:36.470Z,99866.84
2024-04-25T18:47:03.786Z,99866.50
2024-04-25T18:49:33.728Z,99860.81
2024-04-25T18:52:00.818Z,99865.53
2024-04-25T18:54:27.985Z,99868.34
2024-04-25T18:56:55.310Z,99869.06
2024-04-25T18:59:22.604Z,99859.63
2024-04-25T19:01:49.341Z,99870.72
2024-04-25T19:04:21.286Z,99879.44
2024-04-25T19:06:50.670Z,99868.22
2024-04-25T19:09:18.551Z,99878.28
2024-04-25T19:11:46.541Z,99866.84
2024-04-25T19:14:13.992Z,99877.25
2024-04-25T19:16:41.154Z,99878.44
2024-04-25T19:19:10.274Z,99875.41
2024-04-25T19:21:48.024Z,99879.44
2024-04-25T19:24:16.351Z,99885.16
2024-04-25T19:26:44.091Z,99879.44
2024-04-25T19:29:15.322Z,99875.91
2024-04-25T19:31:44.105Z,99861.28
2024-04-25T19:34:13.673Z,99864.50
2024-04-25T19:36:40.430Z,99869.38
2024-04-25T19:39:09.681Z,99863.47
2024-04-25T19:41:40.912Z,99868.34
2024-04-25T19:44:07.650Z,99871.03
2024-04-25T19:46:34.390Z,99865.00
2024-04-25T19:49:01.310Z,99870.56
2024-04-25T19:51:28.937Z,99900.56
2024-04-25T19:53:56.359Z,99918.59
2024-04-25T19:56:23.083Z,99909.34
2024-04-25T19:58:49.885Z,99914.34
2024-04-25T20:01:16.672Z,99914.34
2024-04-25T20:03:44.494Z,99914.28
2024-04-25T20:06:16.808Z,99921.00
2024-04-25T20:08:43.873Z,99910.41
2024-04-25T20:11:10.764Z,99915.41
2024-04-25T20:13:40.831Z,99920.50
2024-04-25T20:16:14.883Z,99914.25
2024-04-25T20:19:00.203Z,99918.91
2024-04-25T20:21:26.942Z,99924.22
2024-04-25T20:23:53.860Z,99924.75
2024-04-25T20:26:20.611Z,99931.06
2024-04-25T20:28:48.213Z,99932.06
2024-04-25T20:31:16.227Z,99934.28
2024-04-25T20:33:42.996Z,99934.28
2024-04-25T20:36:10.510Z,99931.19
2024-04-25T20:38:37.818Z,99919.97
2024-04-25T20:41:05.448Z,99935.88
2024-04-25T20:43:32.135Z,99929.72
2024-04-25T20:45:58.841Z,99938.53
2024-04-25T20:48:25.833Z,99930.22
2024-04-25T20:50:52.832Z,99932.72
2024-04-25T20:53:19.615Z,99942.28
2024-04-25T20:55:46.315Z,99934.25
2024-04-25T20:58:12.990Z,99932.91
2024-04-25T21:00:40.466Z,99930.88
2024-04-25T21:03:07.298Z,99937.41
2024-04-25T21:05:34.198Z,99926.25
2024-04-25T21:08:00.876Z,99928.22
2024-04-25T21:10:27.682Z,99926.59
2024-04-25T21:12:54.384Z,99927.34
2024-04-25T21:15:21.092Z,99924.38
2024-04-25T21:17:47.907Z,99927.06
2024-04-25T21:20:14.698Z,99926.69
2024-04-25T21:22:42.631Z,99922.72
2024-04-25T21:25:09.425Z,99923.03
2024-04-25T21:27:36.299Z,99918.78
2024-04-25T21:30:03.134Z,99920.34
2024-04-25T21:32:36.616Z,99923.19
2024-04-25T21:35:10.047Z,99926.19
2024-04-25T21:37:36.776Z,99917.66
2024-04-25T21:40:03.688Z,99922.34
2024-04-25T21:42:30.361Z,99912.19
2024-04-25T21:44:57.064Z,99912.41
2024-04-25T21:47:23.966Z,99915.16
2024-04-25T21:49:50.767Z,99903.84
2024-04-25T21:52:17.640Z,99911.41
2024-04-25T21:54:44.330Z,99909.88
2024-04-25T21:57:18.219Z,99916.44
2024-04-25T21:59:45.887Z,99914.41
2024-04-25T22:02:12.699Z,99912.38
2024-04-25T22:04:39.512Z,99913.03
2024-04-25T22:07:06.688Z,99919.00
2024-04-25T22:09:33.396Z,99926.22
2024-04-25T22:12:00.231Z,99916.53
2024-04-25T22:14:27.176Z,99915.63
2024-04-25T22:16:53.959Z,99919.03
2024-04-25T22:19:20.811Z,99917.69
2024-04-25T22:21:49.818Z,99921.28
2024-04-25T22:24:18.051Z,99918.25
2024-04-25T22:26:46.106Z,99921.72
2024-04-25T22:29:12.976Z,99922.69
2024-04-25T22:31:39.772Z,99917.88
2024-04-25T22:34:06.617Z,99922.25
2024-04-25T22:36:33.410Z,99920.38
2024-04-25T22:39:00.261Z,99919.41
2024-04-25T22:41:27.335Z,99915.38
2024-04-25T22:43:54.145Z,99916.00
2024-04-25T22:46:21.858Z,99915.63
2024-04-25T22:48:48.722Z,99906.66
2024-04-25T22:51:17.467Z,99901.84
2024-04-25T22:53:44.207Z,99913.63
2024-04-25T22:56:10.953Z,99906.72
2024-04-25T22:58:37.655Z,99903.44
2024-04-25T23:01:04.584Z,99905.56
2024-04-25T23:03:32.036Z,99904.59
2024-04-25T23:05:59.231Z,99901.59
2024-04-25T23:08:26.484Z,99900.38
2024-04-25T23:10:53.531Z,99904.94
2024-04-25T23:13:20.369Z,99905.75
2024-04-25T23:15:47.315Z,99905.06
2024-04-25T23:18:14.243Z,99900.06
2024-04-25T23:20:41.095Z,99897.69
2024-04-25T23:23:07.875Z,99893.00
2024-04-25T23:25:34.601Z,99901.09
2024-04-25T23:28:01.376Z,99891.72
2024-04-25T23:30:28.082Z,99891.00
2024-04-25T23:32:55.030Z,99880.94
2024-04-25T23:35:21.917Z,99879.41
2024-04-25T23:37:48.729Z,99885.63
2024-04-25T23:40:17.294Z,99881.78
2024-04-25T23:42:44.094Z,99882.97
2024-04-25T23:45:10.918Z,99884.28
2024-04-25T23:47:37.758Z,99880.31
2024-04-25T23:50:04.832Z,99886.50
2024-04-25T23:52:31.686Z,99881.66
2024-04-25T23:54:58.444Z,99882.53
2024-04-25T23:57:25.175Z,99883.38
2024-04-25T23:59:52.187Z,99874.81
